Time;durP1;ratioP1;P1;durP2;ratioP2;P2;SDS_P1;SDS_P2;PMS_P1;PMS_P2;Temp;Humidity;BMP_temperature;BMP_pressure;BME280_temperature;BME280_humidity;BME280_pressure;Samples;Min_cycle;Max_cycle;Signal;HPM_P1;HPM_P2
2023/12/15 00:01:29;;;;;;;;;;;;;;;2.99;100.00;97192.06;110478;1241;59696;-61
2023/12/15 00:03:58;;;;;;;;;;;;;;;2.96;100.00;97194.45;110558;1241;59703;-62
2023/12/15 00:06:29;;;;;;;;;;;;;;;2.91;100.00;97204.45;110388;1241;71422;-61
2023/12/15 00:08:59;;;;;;;;;;;;;;;2.77;100.00;97208.39;110479;1238;67520;-62
2023/12/15 00:11:30;;;;;;;;;;;;;;;2.68;100.00;97210.52;110466;1241;69047;-62
2023/12/15 00:14:00;;;;;;;;;;;;;;;2.76;100.00;97215.98;110457;1241;59740;-61
2023/12/15 00:16:30;;;;;;;;;;;;;;;2.78;100.00;97223.66;110549;1240;59662;-61
2023/12/15 00:19:00;;;;;;;;;;;;;;;2.78;100.00;97228.31;110627;1238;70612;-61
2023/12/15 00:21:29;;;;;;;;;;;;;;;2.77;100.00;97231.44;110480;1241;69837;-61
2023/12/15 00:24:02;;;;;;;;;;;;;;;2.77;100.00;97231.94;110606;1238;68533;-61
2023/12/15 00:26:32;;;;;;;;;;;;;;;2.77;100.00;97239.88;110383;1241;60088;-62
2023/12/15 00:29:04;;;;;;;;;;;;;;;2.79;100.00;97235.64;110568;1242;59833;-62
2023/12/15 00:31:35;;;;;;;;;;;;;;;2.73;100.00;97239.69;110587;1241;70436;-62
2023/12/15 00:34:05;;;;;;;;;;;;;;;2.76;100.00;97239.23;110636;1240;67793;-61
2023/12/15 00:36:34;;;;;;;;;;;;;;;2.76;100.00;97243.17;110390;1248;69781;-62
2023/12/15 00:39:05;;;;;;;;;;;;;;;2.75;100.00;97248.91;110538;1238;60072;-62
2023/12/15 00:41:35;;;;;;;;;;;;;;;2.78;100.00;97259.60;110495;1241;59694;-61
2023/12/15 00:44:06;;;;;;;;;;;;;;;2.78;100.00;97266.14;110344;1242;71461;-61
2023/12/15 00:46:42;;;;;;;;;;;;;;;2.68;100.00;97266.76;110423;1241;69074;-61
2023/12/15 00:49:17;;;;;;;;;;;;;;;2.65;100.00;97270.67;110563;1241;68526;-62
2023/12/15 00:51:48;;;;;;;;;;;;;;;2.67;100.00;97281.46;110401;1240;59664;-62
2023/12/15 00:54:18;;;;;;;;;;;;;;;2.66;100.00;97283.56;110583;1238;59753;-62
2023/12/15 00:56:49;;;;;;;;;;;;;;;2.69;100.00;97288.77;110464;1242;72329;-62
2023/12/15 00:59:19;;;;;;;;;;;;;;;2.68;100.00;97291.91;110499;1241;69282;-62
2023/12/15 01:01:52;;;;;;;;;;;;;;;2.68;100.00;97289.31;110473;1243;68394;-62
2023/12/15 01:04:25;;;;;;;;;;;;;;;2.72;100.00;97292.59;110440;1242;59665;-62
2023/12/15 01:06:57;;;;;;;;;;;;;;;2.73;100.00;97307.00;110410;1241;59628;-63
2023/12/15 01:09:28;;;;;;;;;;;;;;;2.73;100.00;97318.00;110400;1244;70460;-62
2023/12/15 01:12:00;;;;;;;;;;;;;;;2.69;100.00;97321.95;110517;1241;69265;-62
2023/12/15 01:14:34;;;;;;;;;;;;;;;2.68;100.00;97325.96;110472;1241;69282;-62
2023/12/15 01:17:05;;;;;;;;;;;;;;;2.70;100.00;97327.78;110455;1241;59726;-63
2023/12/15 01:19:35;;;;;;;;;;;;;;;2.68;100.00;97328.06;110521;1241;59706;-62
2023/12/15 01:22:09;;;;;;;;;;;;;;;2.69;100.00;97329.38;110552;1240;70790;-62
2023/12/15 01:24:39;;;;;;;;;;;;;;;2.65;100.00;97336.25;110546;1240;69240;-63
2023/12/15 01:27:11;;;;;;;;;;;;;;;2.69;100.00;97331.95;110494;1241;69477;-62
2023/12/15 01:29:41;;;;;;;;;;;;;;;2.66;100.00;97336.52;110517;1238;59735;-62
2023/12/15 01:32:12;;;;;;;;;;;;;;;2.67;100.00;97339.59;110501;1241;59673;-62
2023/12/15 01:34:43;;;;;;;;;;;;;;;2.70;100.00;97343.95;110461;1240;71662;-61
2023/12/15 01:37:16;;;;;;;;;;;;;;;2.68;100.00;97343.50;110380;1241;68171;-63
2023/12/15 01:39:48;;;;;;;;;;;;;;;2.71;100.00;97352.02;110620;1241;69256;-61
2023/12/15 01:42:24;;;;;;;;;;;;;;;2.65;100.00;97353.30;110664;1242;59739;-62
2023/12/15 01:44:54;;;;;;;;;;;;;;;2.68;100.00;97352.45;110627;1241;59675;-61
2023/12/15 01:47:25;;;;;;;;;;;;;;;2.72;100.00;97354.35;110600;1241;71420;-61
2023/12/15 01:49:56;;;;;;;;;;;;;;;2.67;100.00;97357.14;110631;1241;69262;-61
2023/12/15 01:52:28;;;;;;;;;;;;;;;2.72;100.00;97360.38;110523;1238;68318;-61
2023/12/15 01:54:59;;;;;;;;;;;;;;;2.70;100.00;97360.30;109637;1242;850311;-62
2023/12/15 01:57:30;;;;;;;;;;;;;;;2.70;100.00;97361.30;110341;1243;59785;-61
2023/12/15 02:00:06;;;;;;;;;;;;;;;2.71;100.00;97362.84;110560;1238;70718;-61
2023/12/15 02:02:42;;;;;;;;;;;;;;;2.74;100.00;97360.46;110519;1240;69820;-61
2023/12/15 02:05:16;;;;;;;;;;;;;;;2.69;100.00;97363.58;110534;1241;68454;-61
2023/12/15 02:07:47;;;;;;;;;;;;;;;2.76;100.00;97365.38;110467;1244;59673;-61
2023/12/15 02:10:21;;;;;;;;;;;;;;;2.79;100.00;97368.15;110475;1240;59666;-62
2023/12/15 02:12:56;;;;;;;;;;;;;;;2.83;100.00;97369.05;110436;1240;71331;-62
2023/12/15 02:15:38;;;;;;;;;;;;;;;2.85;100.00;97365.16;110532;1241;69238;-63
2023/12/15 02:18:09;;;;;;;;;;;;;;;2.84;100.00;97367.79;110490;1241;69381;-62
2023/12/15 02:20:44;;;;;;;;;;;;;;;2.86;100.00;97371.83;110411;1238;59754;-62
2023/12/15 02:23:14;;;;;;;;;;;;;;;2.85;100.00;97373.77;110644;1242;59675;-62
2023/12/15 02:25:47;;;;;;;;;;;;;;;2.87;100.00;97376.97;110515;1241;71228;-61
2023/12/15 02:28:20;;;;;;;;;;;;;;;2.88;100.00;97379.32;110411;1242;69087;-61
2023/12/15 02:30:51;;;;;;;;;;;;;;;2.91;100.00;97381.63;110433;1241;68519;-60
2023/12/15 02:33:28;;;;;;;;;;;;;;;2.90;100.00;97386.46;110386;1241;59746;-60
2023/12/15 02:35:59;;;;;;;;;;;;;;;2.91;100.00;97391.94;110451;1240;59742;-62
2023/12/15 02:38:30;;;;;;;;;;;;;;;2.87;100.00;97388.34;110288;1242;71396;-60
2023/12/15 02:41:01;;;;;;;;;;;;;;;2.90;100.00;97391.48;110408;1240;69517;-63
2023/12/15 02:43:32;;;;;;;;;;;;;;;2.94;100.00;97393.89;110503;1238;69081;-63
2023/12/15 02:46:12;;;;;;;;;;;;;;;2.94;100.00;97399.22;110295;1242;59679;-61
2023/12/15 02:48:45;;;;;;;;;;;;;;;2.87;100.00;97397.45;110496;1241;60084;-62
2023/12/15 02:51:24;;;;;;;;;;;;;;;2.86;100.00;97406.77;110574;1241;70529;-62
2023/12/15 02:54:00;;;;;;;;;;;;;;;2.90;100.00;97410.04;110591;1241;69014;-62
2023/12/15 02:56:36;;;;;;;;;;;;;;;2.92;100.00;97416.52;110396;1238;69000;-62
2023/12/15 02:59:20;;;;;;;;;;;;;;;2.92;100.00;97418.56;110474;1243;59671;-62
2023/12/15 03:01:53;;;;;;;;;;;;;;;2.96;100.00;97420.29;110408;1240;59681;-62
2023/12/15 03:04:23;;;;;;;;;;;;;;;2.97;100.00;97422.68;110261;1242;70742;-62
2023/12/15 03:06:54;;;;;;;;;;;;;;;2.98;100.00;97426.73;110394;1238;67805;-61
2023/12/15 03:09:23;;;;;;;;;;;;;;;3.01;100.00;97430.42;110464;1238;69265;-61
2023/12/15 03:11:54;;;;;;;;;;;;;;;3.03;100.00;97431.04;110394;1241;59673;-61
2023/12/15 03:14:29;;;;;;;;;;;;;;;3.04;100.00;97431.66;110574;1241;59733;-61
2023/12/15 03:17:01;;;;;;;;;;;;;;;3.05;100.00;97434.03;110471;1242;71406;-61
2023/12/15 03:19:37;;;;;;;;;;;;;;;3.05;100.00;97435.40;110589;1238;69241;-61
2023/12/15 03:22:07;;;;;;;;;;;;;;;3.07;100.00;97441.38;110373;1241;69768;-61
2023/12/15 03:24:36;;;;;;;;;;;;;;;3.08;100.00;97442.36;110567;1241;59747;-61
2023/12/15 03:27:05;;;;;;;;;;;;;;;3.09;100.00;97447.46;110392;1238;59674;-61
2023/12/15 03:29:36;;;;;;;;;;;;;;;3.11;100.00;97456.19;110472;1241;71201;-61
2023/12/15 03:32:06;;;;;;;;;;;;;;;3.07;100.00;97464.61;110435;1240;70234;-62
2023/12/15 03:34:36;;;;;;;;;;;;;;;3.06;100.00;97469.13;110503;1241;69294;-62
2023/12/15 03:37:08;;;;;;;;;;;;;;;3.06;100.00;97470.67;110472;1240;59753;-62
2023/12/15 03:39:38;;;;;;;;;;;;;;;3.05;100.00;97479.48;110635;1240;59745;-62
2023/12/15 03:42:08;;;;;;;;;;;;;;;2.96;100.00;97478.51;110526;1238;71304;-62
2023/12/15 03:44:41;;;;;;;;;;;;;;;2.96;100.00;97481.23;110602;1238;69264;-61
2023/12/15 03:47:11;;;;;;;;;;;;;;;2.99;100.00;97483.71;110594;1241;68250;-62
2023/12/15 03:49:40;;;;;;;;;;;;;;;2.95;100.00;97486.98;110564;1240;59696;-61
2023/12/15 03:52:12;;;;;;;;;;;;;;;2.93;100.00;97494.62;110512;1238;59715;-62
2023/12/15 03:54:43;;;;;;;;;;;;;;;2.96;100.00;97499.32;110545;1241;70518;-61
2023/12/15 03:57:12;;;;;;;;;;;;;;;2.95;100.00;97501.08;110518;1241;69901;-62
2023/12/15 03:59:42;;;;;;;;;;;;;;;2.97;100.00;97498.44;110496;1241;68540;-62
2023/12/15 04:02:15;;;;;;;;;;;;;;;2.95;100.00;97500.39;110433;1238;59630;-62
2023/12/15 04:04:46;;;;;;;;;;;;;;;2.95;100.00;97503.50;110286;1242;59773;-61
2023/12/15 04:07:17;;;;;;;;;;;;;;;2.96;100.00;97506.23;110613;1241;71242;-62
2023/12/15 04:09:50;;;;;;;;;;;;;;;2.93;100.00;97509.59;110531;1238;68618;-62
2023/12/15 04:12:19;;;;;;;;;;;;;;;2.94;100.00;97506.98;110459;1238;68503;-62
2023/12/15 04:14:51;;;;;;;;;;;;;;;2.90;100.00;97504.55;110554;1241;59684;-62
2023/12/15 04:17:21;;;;;;;;;;;;;;;2.89;100.00;97506.14;110414;1240;59607;-62
2023/12/15 04:19:51;;;;;;;;;;;;;;;2.84;100.00;97511.00;110566;1241;70604;-62
2023/12/15 04:22:22;;;;;;;;;;;;;;;2.84;100.00;97513.23;110505;1238;69143;-62
2023/12/15 04:24:52;;;;;;;;;;;;;;;2.85;100.00;97520.41;110477;1240;69288;-62
2023/12/15 04:27:22;;;;;;;;;;;;;;;2.85;100.00;97524.91;110607;1238;59712;-61
2023/12/15 04:29:52;;;;;;;;;;;;;;;2.84;100.00;97525.64;110595;1238;59657;-62
2023/12/15 04:32:21;;;;;;;;;;;;;;;2.81;100.00;97528.33;110333;1238;71255;-61
2023/12/15 04:34:51;;;;;;;;;;;;;;;2.81;100.00;97534.70;110395;1248;69799;-62
2023/12/15 04:37:22;;;;;;;;;;;;;;;2.81;100.00;97541.25;110458;1238;69282;-62
2023/12/15 04:39:53;;;;;;;;;;;;;;;2.81;100.00;97538.29;110576;1241;59701;-62
2023/12/15 04:42:24;;;;;;;;;;;;;;;2.81;100.00;97546.04;110521;1242;59704;-62
2023/12/15 04:44:55;;;;;;;;;;;;;;;2.83;100.00;97557.04;110569;1240;71823;-62
2023/12/15 04:47:25;;;;;;;;;;;;;;;2.83;100.00;97562.36;110444;1238;69060;-62
2023/12/15 04:49:55;;;;;;;;;;;;;;;2.85;100.00;97573.82;110602;1244;69130;-62
2023/12/15 04:52:25;;;;;;;;;;;;;;;2.79;100.00;97577.14;110501;1240;59702;-62
2023/12/15 04:54:54;;;;;;;;;;;;;;;2.80;100.00;97580.68;110470;1243;59686;-62
2023/12/15 04:57:24;;;;;;;;;;;;;;;2.80;100.00;97588.59;110506;1241;70444;-62
2023/12/15 04:59:55;;;;;;;;;;;;;;;2.80;100.00;97590.66;110577;1241;69199;-62
2023/12/15 05:02:26;;;;;;;;;;;;;;;2.81;100.00;97590.29;110379;1240;68593;-62
2023/12/15 05:04:55;;;;;;;;;;;;;;;2.78;100.00;97591.29;110385;1241;59685;-62
2023/12/15 05:07:27;;;;;;;;;;;;;;;2.77;100.00;97597.53;110454;1241;59686;-61
2023/12/15 05:09:56;;;;;;;;;;;;;;;2.77;100.00;97608.70;110439;1238;71635;-62
2023/12/15 05:12:26;;;;;;;;;;;;;;;2.79;100.00;97610.88;110373;1238;68436;-62
2023/12/15 05:14:57;;;;;;;;;;;;;;;2.80;100.00;97612.88;110475;1240;69422;-62
2023/12/15 05:17:27;;;;;;;;;;;;;;;2.81;100.00;97618.01;110430;1238;59726;-61
2023/12/15 05:19:56;;;;;;;;;;;;;;;2.79;100.00;97625.63;110491;1238;59701;-62
2023/12/15 05:22:26;;;;;;;;;;;;;;;2.78;100.00;97633.80;110600;1240;71400;-61
2023/12/15 05:24:56;;;;;;;;;;;;;;;2.77;100.00;97635.37;110579;1238;69798;-62
2023/12/15 05:27:26;;;;;;;;;;;;;;;2.77;100.00;97634.67;110574;1240;69150;-62
2023/12/15 05:29:55;;;;;;;;;;;;;;;2.79;100.00;97637.02;110391;1238;59732;-62
2023/12/15 05:32:24;;;;;;;;;;;;;;;2.79;100.00;97639.60;110373;1238;59747;-62
2023/12/15 05:34:55;;;;;;;;;;;;;;;2.79;100.00;97643.58;110496;1241;72355;-61
2023/12/15 05:37:24;;;;;;;;;;;;;;;2.80;100.00;97643.70;110466;1238;69200;-61
2023/12/15 05:39:53;;;;;;;;;;;;;;;2.79;100.00;97648.04;110620;1238;69294;-61
2023/12/15 05:42:22;;;;;;;;;;;;;;;2.78;100.00;97648.43;110410;1241;59721;-60
2023/12/15 05:44:51;;;;;;;;;;;;;;;2.77;100.00;97652.74;110418;1241;59682;-62
2023/12/15 05:47:20;;;;;;;;;;;;;;;2.77;100.00;97650.34;110486;1240;71942;-61
2023/12/15 05:49:50;;;;;;;;;;;;;;;2.75;100.00;97658.69;110439;1238;68507;-61
2023/12/15 05:52:21;;;;;;;;;;;;;;;2.74;100.00;97664.23;110475;1241;69291;-61
2023/12/15 05:54:50;;;;;;;;;;;;;;;2.74;100.00;97669.40;110566;1242;59685;-61
2023/12/15 05:57:21;;;;;;;;;;;;;;;2.74;100.00;97678.52;110484;1238;59667;-61
2023/12/15 05:59:50;;;;;;;;;;;;;;;2.72;100.00;97682.54;110562;1240;71401;-61
2023/12/15 06:02:19;;;;;;;;;;;;;;;2.72;100.00;97688.23;110362;1241;69163;-61
2023/12/15 06:04:49;;;;;;;;;;;;;;;2.72;100.00;97690.98;110545;1241;69264;-62
2023/12/15 06:07:19;;;;;;;;;;;;;;;2.72;100.00;97694.09;110438;1240;59669;-61
2023/12/15 06:09:48;;;;;;;;;;;;;;;2.71;100.00;97696.54;110476;1238;59669;-61
2023/12/15 06:12:19;;;;;;;;;;;;;;;2.66;100.00;97700.34;110500;1238;71966;-61
2023/12/15 06:14:48;;;;;;;;;;;;;;;2.61;100.00;97704.80;110508;1241;69222;-61
2023/12/15 06:17:19;;;;;;;;;;;;;;;2.60;100.00;97707.60;110525;1241;69208;-61
2023/12/15 06:19:48;;;;;;;;;;;;;;;2.58;100.00;97714.23;110429;1247;59753;-62
2023/12/15 06:22:18;;;;;;;;;;;;;;;2.58;100.00;97721.77;110377;1240;59738;-61
2023/12/15 06:24:48;;;;;;;;;;;;;;;2.58;100.00;97732.47;110597;1238;71335;-62
2023/12/15 06:27:18;;;;;;;;;;;;;;;2.58;100.00;97737.62;110283;1238;69300;-61
2023/12/15 06:29:47;;;;;;;;;;;;;;;2.58;100.00;97746.91;110507;1240;68406;-63
2023/12/15 06:32:18;;;;;;;;;;;;;;;2.58;100.00;97754.83;110385;1238;59741;-60
2023/12/15 06:34:48;;;;;;;;;;;;;;;2.58;100.00;97760.48;110556;1241;59707;-62
2023/12/15 06:37:18;;;;;;;;;;;;;;;2.59;100.00;97767.52;110298;1242;71787;-61
2023/12/15 06:39:50;;;;;;;;;;;;;;;2.59;100.00;97774.58;110453;1241;69295;-61
2023/12/15 06:42:19;;;;;;;;;;;;;;;2.61;100.00;97779.52;110407;1238;69164;-61
2023/12/15 06:44:49;;;;;;;;;;;;;;;2.63;100.00;97784.58;110482;1238;59738;-61
2023/12/15 06:47:19;;;;;;;;;;;;;;;2.63;100.00;97789.56;110609;1238;59666;-60
2023/12/15 06:49:52;;;;;;;;;;;;;;;2.65;100.00;97793.64;110624;1241;71828;-60
2023/12/15 06:52:22;;;;;;;;;;;;;;;2.66;100.00;97791.54;110418;1241;69842;-62
2023/12/15 06:54:51;;;;;;;;;;;;;;;2.67;100.00;97785.63;110442;1241;69258;-60
2023/12/15 06:57:21;;;;;;;;;;;;;;;2.69;100.00;97786.27;110577;1240;59804;-60
2023/12/15 06:59:50;;;;;;;;;;;;;;;2.71;100.00;97789.65;110744;1239;59647;-62
2023/12/15 07:02:20;;;;;;;;;;;;;;;2.73;100.00;97796.11;110483;1238;70648;-61
2023/12/15 07:04:49;;;;;;;;;;;;;;;2.74;100.00;97797.44;110613;1239;69851;-61
2023/12/15 07:07:23;;;;;;;;;;;;;;;2.75;100.00;97806.73;110529;1241;69240;-61
2023/12/15 07:09:54;;;;;;;;;;;;;;;2.74;100.00;97808.98;110528;1238;59744;-63
2023/12/15 07:12:23;;;;;;;;;;;;;;;2.73;100.00;97816.27;110463;1239;59744;-62
2023/12/15 07:14:53;;;;;;;;;;;;;;;2.73;100.00;97820.02;110428;1241;71978;-62
2023/12/15 07:17:22;;;;;;;;;;;;;;;2.76;100.00;97825.77;110475;1238;69606;-62
2023/12/15 07:19:51;;;;;;;;;;;;;;;2.80;100.00;97823.92;110614;1238;69216;-62
2023/12/15 07:22:26;;;;;;;;;;;;;;;2.79;100.00;97826.00;110616;1241;59674;-61
2023/12/15 07:24:55;;;;;;;;;;;;;;;2.81;100.00;97832.33;110550;1240;59691;-62
2023/12/15 07:27:26;;;;;;;;;;;;;;;2.85;100.00;97836.48;110332;1238;71918;-61
2023/12/15 07:29:55;;;;;;;;;;;;;;;2.89;100.00;97837.20;110532;1238;69811;-61
2023/12/15 07:32:26;;;;;;;;;;;;;;;2.94;100.00;97840.98;110393;1239;69460;-61
2023/12/15 07:34:57;;;;;;;;;;;;;;;3.00;100.00;97844.73;110449;1238;59701;-61
2023/12/15 07:37:26;;;;;;;;;;;;;;;3.03;100.00;97848.58;110363;1240;59725;-61
2023/12/15 07:39:56;;;;;;;;;;;;;;;2.96;100.00;97856.77;110458;1238;71439;-61
2023/12/15 07:42:28;;;;;;;;;;;;;;;2.99;100.00;97867.30;110454;1240;69254;-63
2023/12/15 07:44:58;;;;;;;;;;;;;;;2.99;100.00;97868.34;110494;1241;69160;-60
2023/12/15 07:47:28;;;;;;;;;;;;;;;3.00;100.00;97872.97;110451;1241;59667;-60
2023/12/15 07:50:00;;;;;;;;;;;;;;;3.01;100.00;97877.58;110485;1240;59876;-61
2023/12/15 07:52:32;;;;;;;;;;;;;;;3.04;100.00;97872.13;110552;1241;71532;-61
2023/12/15 07:55:01;;;;;;;;;;;;;;;3.06;100.00;97867.24;110274;1242;69676;-61
2023/12/15 07:57:32;;;;;;;;;;;;;;;3.08;100.00;97874.92;110491;1240;69679;-60
2023/12/15 08:00:10;;;;;;;;;;;;;;;3.11;100.00;97881.39;110283;1249;59745;-61
2023/12/15 08:02:44;;;;;;;;;;;;;;;3.16;100.00;97882.07;110451;1242;59648;-61
2023/12/15 08:05:13;;;;;;;;;;;;;;;3.21;100.00;97882.55;110467;1241;70784;-60
2023/12/15 08:07:44;;;;;;;;;;;;;;;3.29;100.00;97887.27;110534;1238;69271;-61
2023/12/15 08:10:13;;;;;;;;;;;;;;;3.36;100.00;97894.09;110388;1241;69776;-61
2023/12/15 08:12:43;;;;;;;;;;;;;;;3.42;100.00;97897.64;110506;1241;59694;-60
2023/12/15 08:15:12;;;;;;;;;;;;;;;3.47;100.00;97900.08;110457;1241;59646;-61
2023/12/15 08:17:44;;;;;;;;;;;;;;;3.51;100.00;97902.84;110413;1238;71846;-61
2023/12/15 08:20:15;;;;;;;;;;;;;;;3.55;100.00;97913.55;110445;1245;69087;-61
2023/12/15 08:22:46;;;;;;;;;;;;;;;3.60;100.00;97923.17;110385;1241;70361;-60
2023/12/15 08:25:16;;;;;;;;;;;;;;;3.67;100.00;97930.38;110414;1238;59777;-61
2023/12/15 08:27:45;;;;;;;;;;;;;;;3.71;100.00;97937.95;110378;1238;59686;-61
2023/12/15 08:30:15;;;;;;;;;;;;;;;3.80;100.00;97941.25;110521;1241;71375;-62
2023/12/15 08:32:44;;;;;;;;;;;;;;;3.89;100.00;97942.64;110526;1239;69898;-63
2023/12/15 08:35:13;;;;;;;;;;;;;;;3.97;100.00;97943.72;110429;1241;71523;-60
2023/12/15 08:37:42;;;;;;;;;;;;;;;4.01;100.00;97951.14;110518;1241;59957;-60
2023/12/15 08:40:12;;;;;;;;;;;;;;;4.06;100.00;97954.04;110443;1241;59783;-61
2023/12/15 08:42:41;;;;;;;;;;;;;;;4.11;100.00;97958.00;110432;1242;71315;-61
2023/12/15 08:45:10;;;;;;;;;;;;;;;4.16;100.00;97962.64;110506;1238;69389;-61
2023/12/15 08:47:40;;;;;;;;;;;;;;;4.21;100.00;97964.20;110443;1240;69907;-61
2023/12/15 08:50:10;;;;;;;;;;;;;;;4.22;100.00;97962.40;110444;1242;59709;-61
2023/12/15 08:52:40;;;;;;;;;;;;;;;4.19;100.00;97967.73;110518;1238;59754;-61
2023/12/15 08:55:10;;;;;;;;;;;;;;;4.22;100.00;97969.14;110470;1240;71356;-61
2023/12/15 08:57:38;;;;;;;;;;;;;;;4.08;100.00;97968.27;110498;1241;69802;-61
2023/12/15 09:00:08;;;;;;;;;;;;;;;4.13;100.00;97971.40;110539;1242;70309;-61
2023/12/15 09:02:38;;;;;;;;;;;;;;;4.21;100.00;97967.27;110414;1240;59720;-61
2023/12/15 09:05:08;;;;;;;;;;;;;;;4.23;100.00;97965.83;110467;1238;59659;-61
2023/12/15 09:07:59;;;;;;;;;;;;;;;4.27;100.00;97972.58;110570;1241;72062;-61
2023/12/15 09:10:33;;;;;;;;;;;;;;;4.29;100.00;97977.50;110588;1240;68632;-61
2023/12/15 09:13:02;;;;;;;;;;;;;;;4.32;100.00;97982.55;110494;1240;69887;-61
2023/12/15 09:15:32;;;;;;;;;;;;;;;4.35;100.00;97980.73;110353;1241;59728;-61
2023/12/15 09:18:02;;;;;;;;;;;;;;;4.37;100.00;97978.56;110429;1238;59686;-61
2023/12/15 09:20:38;;;;;;;;;;;;;;;4.39;100.00;97975.92;110583;1238;72077;-61
2023/12/15 09:23:11;;;;;;;;;;;;;;;4.39;100.00;97980.91;110602;1238;69100;-60
2023/12/15 09:25:40;;;;;;;;;;;;;;;4.39;100.00;97977.28;110634;1238;70273;-61
2023/12/15 09:28:10;;;;;;;;;;;;;;;4.39;100.00;97978.66;110380;1243;59696;-60
2023/12/15 09:30:39;;;;;;;;;;;;;;;4.39;100.00;97981.42;110383;1240;60082;-60
2023/12/15 09:33:08;;;;;;;;;;;;;;;4.41;100.00;97987.42;110436;1239;71361;-61
2023/12/15 09:35:37;;;;;;;;;;;;;;;4.40;100.00;97985.89;110531;1242;69292;-61
2023/12/15 09:38:07;;;;;;;;;;;;;;;4.41;100.00;97983.92;110428;1241;67550;-61
2023/12/15 09:40:37;;;;;;;;;;;;;;;4.47;100.00;97987.33;110349;1242;59691;-61
2023/12/15 09:43:06;;;;;;;;;;;;;;;4.54;100.00;97993.97;110503;1238;59734;-61
2023/12/15 09:45:35;;;;;;;;;;;;;;;4.63;100.00;97995.66;110488;1238;71356;-61
2023/12/15 09:48:06;;;;;;;;;;;;;;;4.76;100.00;97999.13;110411;1238;69816;-61
2023/12/15 09:50:39;;;;;;;;;;;;;;;4.91;100.00;97997.34;110454;1240;68547;-61
2023/12/15 09:53:08;;;;;;;;;;;;;;;5.04;100.00;97995.73;110482;1241;59721;-61
2023/12/15 09:55:40;;;;;;;;;;;;;;;5.19;100.00;97999.48;110398;1242;59691;-59
2023/12/15 09:58:10;;;;;;;;;;;;;;;5.34;100.00;97998.66;110525;1238;72431;-61
2023/12/15 10:00:40;;;;;;;;;;;;;;;5.56;100.00;98003.21;110460;1240;68744;-61
2023/12/15 10:03:09;;;;;;;;;;;;;;;5.81;100.00;98004.06;110456;1238;69311;-61
2023/12/15 10:05:39;;;;;;;;;;;;;;;6.05;100.00;98003.33;110474;1241;59625;-61
2023/12/15 10:08:08;;;;;;;;;;;;;;;6.17;100.00;98012.49;110424;1240;59691;-61
2023/12/15 10:10:38;;;;;;;;;;;;;;;6.25;100.00;98009.54;110412;1241;71385;-62
2023/12/15 10:13:08;;;;;;;;;;;;;;;6.18;100.00;98006.73;110469;1238;68164;-60
2023/12/15 10:15:38;;;;;;;;;;;;;;;6.07;100.00;98007.41;110478;1241;69764;-63
2023/12/15 10:18:12;;;;;;;;;;;;;;;6.02;100.00;98010.03;110532;1238;59733;-61
2023/12/15 10:20:43;;;;;;;;;;;;;;;5.92;100.00;98009.83;110475;1238;59715;-62
2023/12/15 10:23:14;;;;;;;;;;;;;;;5.82;100.00;98016.31;110506;1240;70977;-61
2023/12/15 10:25:47;;;;;;;;;;;;;;;5.75;100.00;98010.38;110521;1238;69256;-62
2023/12/15 10:28:17;;;;;;;;;;;;;;;5.78;100.00;98011.63;110419;1241;69881;-61
2023/12/15 10:30:49;;;;;;;;;;;;;;;5.66;100.00;98016.65;110556;1241;59704;-61
2023/12/15 10:33:19;;;;;;;;;;;;;;;5.52;100.00;98017.57;110531;1241;59686;-61
2023/12/15 10:35:49;;;;;;;;;;;;;;;5.53;100.00;98019.61;110488;1238;72389;-61
2023/12/15 10:38:18;;;;;;;;;;;;;;;5.56;100.00;98024.64;110479;1242;69432;-61
2023/12/15 10:40:48;;;;;;;;;;;;;;;5.54;100.00;98029.09;110512;1241;68542;-60
2023/12/15 10:43:17;;;;;;;;;;;;;;;5.51;100.00;98026.25;110523;1241;60102;-62
2023/12/15 10:45:47;;;;;;;;;;;;;;;5.38;100.00;98018.01;110541;1238;59636;-62
2023/12/15 10:48:18;;;;;;;;;;;;;;;5.15;100.00;98011.70;110551;1241;72137;-63
2023/12/15 10:50:48;;;;;;;;;;;;;;;5.09;100.00;98006.77;110504;1238;69251;-61
2023/12/15 10:53:17;;;;;;;;;;;;;;;5.05;100.00;98004.35;110585;1238;69413;-62
2023/12/15 10:55:47;;;;;;;;;;;;;;;4.99;100.00;98008.39;110485;1242;59706;-61
2023/12/15 10:58:16;;;;;;;;;;;;;;;5.02;100.00;98010.36;110370;1240;59638;-61
2023/12/15 11:00:46;;;;;;;;;;;;;;;5.10;100.00;98008.45;110436;1242;71732;-61
2023/12/15 11:03:16;;;;;;;;;;;;;;;5.13;100.00;98001.80;110435;1240;69630;-61
2023/12/15 11:05:45;;;;;;;;;;;;;;;5.12;100.00;98003.71;110624;1240;68844;-61
2023/12/15 11:08:15;;;;;;;;;;;;;;;5.08;100.00;98006.79;110523;1240;59702;-61
2023/12/15 11:10:46;;;;;;;;;;;;;;;5.01;100.00;98018.16;110463;1238;59743;-61
2023/12/15 11:13:34;;;;;;;;;;;;;;;4.98;100.00;98017.27;110444;1238;71926;-60
2023/12/15 11:16:04;;;;;;;;;;;;;;;4.98;100.00;98018.10;110462;1241;70588;-61
2023/12/15 11:18:34;;;;;;;;;;;;;;;4.96;100.00;98021.48;110530;1240;68298;-60
2023/12/15 11:21:06;;;;;;;;;;;;;;;4.97;100.00;98017.77;110417;1242;59740;-61
2023/12/15 11:23:48;;;;;;;;;;;;;;;4.90;100.00;98013.41;110375;1240;59804;-61
2023/12/15 11:26:20;;;;;;;;;;;;;;;4.84;100.00;98015.90;110480;1238;70635;-61
2023/12/15 11:28:50;;;;;;;;;;;;;;;4.88;100.00;98018.52;110408;1238;69265;-61
2023/12/15 11:31:24;;;;;;;;;;;;;;;4.96;100.00;98029.44;110401;1242;69845;-61
2023/12/15 11:33:53;;;;;;;;;;;;;;;5.06;100.00;98036.11;110488;1238;59642;-61
2023/12/15 11:36:26;;;;;;;;;;;;;;;5.17;100.00;98034.30;110438;1241;59640;-61
2023/12/15 11:38:55;;;;;;;;;;;;;;;5.30;100.00;98035.98;110426;1240;71366;-61
2023/12/15 11:41:24;;;;;;;;;;;;;;;5.45;100.00;98041.38;110444;1240;68424;-61
2023/12/15 11:43:53;;;;;;;;;;;;;;;5.56;99.98;98046.78;110373;1238;68523;-61
2023/12/15 11:46:25;;;;;;;;;;;;;;;5.71;100.00;98059.13;110442;1239;59688;-61
2023/12/15 11:49:00;;;;;;;;;;;;;;;5.83;99.63;98070.73;110491;1238;59667;-62
2023/12/15 11:51:30;;;;;;;;;;;;;;;5.90;99.17;98071.29;110378;1240;70782;-62
2023/12/15 11:54:02;;;;;;;;;;;;;;;5.96;98.93;98073.47;110501;1240;69204;-61
2023/12/15 11:56:31;;;;;;;;;;;;;;;5.89;98.26;98079.64;110584;1238;68606;-62
2023/12/15 11:59:00;;;;;;;;;;;;;;;5.94;99.53;98084.47;110348;1238;59725;-62
2023/12/15 12:01:35;;;;;;;;;;;;;;;5.91;99.66;98084.23;110443;1238;59753;-62
2023/12/15 12:04:05;;;;;;;;;;;;;;;5.77;98.14;98085.52;110492;1242;71347;-61
2023/12/15 12:06:34;;;;;;;;;;;;;;;5.76;99.30;98083.34;110469;1241;69813;-62
2023/12/15 12:09:04;;;;;;;;;;;;;;;5.74;99.41;98080.46;110399;1242;69093;-62
2023/12/15 12:11:33;;;;;;;;;;;;;;;5.67;97.27;98084.41;110503;1238;59776;-62
2023/12/15 12:14:03;;;;;;;;;;;;;;;5.60;99.64;98090.02;110469;1241;59688;-65
2023/12/15 12:16:32;;;;;;;;;;;;;;;5.56;100.00;98089.33;110384;1241;72001;-62
2023/12/15 12:19:04;;;;;;;;;;;;;;;5.48;100.00;98091.91;110608;1238;69804;-61
2023/12/15 12:21:33;;;;;;;;;;;;;;;5.35;99.26;98081.05;110411;1241;69277;-60
2023/12/15 12:24:05;;;;;;;;;;;;;;;5.30;100.00;98080.39;110476;1240;59753;-61
2023/12/15 12:26:35;;;;;;;;;;;;;;;5.23;100.00;98083.25;110596;1241;60121;-61
2023/12/15 12:29:04;;;;;;;;;;;;;;;5.14;100.00;98091.43;110305;1242;71359;-61
2023/12/15 12:31:33;;;;;;;;;;;;;;;5.04;100.00;98096.98;110433;1238;69222;-62
2023/12/15 12:34:02;;;;;;;;;;;;;;;4.95;100.00;98093.70;110470;1238;68121;-61
2023/12/15 12:36:31;;;;;;;;;;;;;;;4.83;100.00;98097.28;110441;1241;59753;-61
2023/12/15 12:39:02;;;;;;;;;;;;;;;4.78;100.00;98100.75;110558;1240;59687;-62
2023/12/15 12:41:32;;;;;;;;;;;;;;;4.73;100.00;98102.15;110443;1241;70693;-62
2023/12/15 12:44:01;;;;;;;;;;;;;;;4.69;100.00;98104.25;110492;1238;67700;-61
2023/12/15 12:46:32;;;;;;;;;;;;;;;4.62;100.00;98107.23;110547;1239;69765;-61
2023/12/15 12:49:01;;;;;;;;;;;;;;;4.59;100.00;98111.15;110433;1240;59784;-62
2023/12/15 12:51:31;;;;;;;;;;;;;;;4.58;100.00;98115.86;110645;1241;59665;-61
2023/12/15 12:54:02;;;;;;;;;;;;;;;4.55;100.00;98118.55;110482;1239;71995;-62
2023/12/15 12:56:31;;;;;;;;;;;;;;;4.55;100.00;98122.54;110549;1238;68445;-61